Blaenau Ffestiniog, United Kingdom
Current Conditions -  °F | °C
As of 10:29 AM on Thursday 23 Oct 2014 (Local Time) from EGOV Reporting Station
Broken Clouds Broken Clouds  
Wind Chill: 14°   Ceiling: 1500
Heat Index: 14°   Visibility: 6mi
Dew Point: 14°   Wind: 24mph
Humidity: 100%   Direction: 210°SSW
Pressure: 29.94"   Gusts: NA
Location:  52.99°N, 3.94°W
Report Text: EGOV 230929Z 21021KT 9999 FEW003 SCT005 BKN015 14/14 Q1014 YLO1 TEMPO 4000 RADZ YLO1
Loading
Personal Weather Stations






























Interactive Weather Map
Tropical Storm Tracking
New forecast layout! Learn more

10-Day Weather Forecast

Advertisements
Track Severe Weather on mobile